Dauphin Island, AL

8:20 PM CST on February 07, 2016 (GMT -0600)
Dauphin Island | | Change Station
CLOSE
Current Station
Personal Weather Station
Location: Dauphin Island, AL
Elevation: 16 ft
Nearby Weather Stations
Active Advisory: Wind Advisory

Elev 16 ft 30.25 °N, 88.14 °W | Updated 4 minutes ago

Clear
Clear
53.2 °F
Feels Like 53.2 °F
N
42.0
Wind Variable Wind from West
Gusts 45.0 mph

Today
High -- | Low -- °F
--% Chance of Precip.
Yesterday
High -- | Low -- °F
Precip. -- in
Pressure 30.14 in
Visibility 10.0 miles
Clouds Clear
Dew Point 40 °F
Humidity 60%
Rainfall 0.00 in
Snow Depth Not available.
6:39 AM 5:34 PM
Waning Crescent, 0% visible
METAR KCQF 080155Z AUTO 26003KT 10SM CLR 08/03 A3014 RMK AO2
Pressure 30.14 in
Visibility 10.0 miles
Clouds Clear
Dew Point 40 °F
Humidity 60%
Rainfall 0.00 in
Snow Depth Not available.
6:39 AM 5:34 PM
Waning Crescent, 0% visible
METAR KCQF 080155Z AUTO 26003KT 10SM CLR 08/03 A3014 RMK AO2

10-Day Weather Forecast

Almanac

Astronomy

Feb. 07, 2016 Rise Set
Actual Time
Civil Twilight
Nautical Twilight
Astronomical Twilight
Moon
Length of Visible Light
Length of Day
Tomorrow will be .
, % of the Moon is Illuminated

Today's Extremes

State Highs State Lows

Community

WunderPhotos

Upload Photos

1,891,364 photos uploaded!

WunderBlog® & News

Nearby

Air Quality

  Air Quality AQ Index Pollutant
Not available.

Snow Depth

Station Depth Elevation

Earthquake Activity

City Distance Mag. Time & Date
Minimum magnitude displayed is 2.5.

Coastal Water Temperatures

Place Temperature

Stations

Nearby Weather Stations

Station Location Temp. Windchill Dew Point Humidity Wind Precip. Elev Updated Type
                   

Watches & Warnings

Wind Advisory
Issued: 2:49 PM CST Feb. 7, 2016 – National Weather Service

... Wind Advisory in effect from noon Monday to 6 am CST Tuesday...

The National Weather Service in Mobile has issued a Wind
Advisory... which is in effect from noon Monday to 6 am CST
Tuesday.

* Timing... Monday afternoon through Monday night.

* Winds... northwest and increasing to 25 to 30 mph with frequent
higher gusts in excess of 35 mph likely.

Precautionary/preparedness actions...

A Wind Advisory means that winds of 30 to 39 mph are expected.
Winds this strong can make driving difficult...
especially for high profile vehicles. Use extra caution.